sensor_id;sensor_type;location;lat;lon;timestamp;P1;durP1;ratioP1;P2;durP2;ratioP2
6336;SDS011;3201;49.962;11.618;2023-03-14T00:01:30;1.43;;;0.67;;
6336;SDS011;3201;49.962;11.618;2023-03-14T00:03:55;0.70;;;0.50;;
6336;SDS011;3201;49.962;11.618;2023-03-14T00:06:21;1.10;;;0.70;;
6336;SDS011;3201;49.962;11.618;2023-03-14T00:08:46;3.03;;;1.00;;
6336;SDS011;3201;49.962;11.618;2023-03-14T00:11:15;1.17;;;0.90;;
6336;SDS011;3201;49.962;11.618;2023-03-14T00:13:42;1.13;;;0.70;;
6336;SDS011;3201;49.962;11.618;2023-03-14T00:16:08;1.53;;;0.77;;
6336;SDS011;3201;49.962;11.618;2023-03-14T00:18:35;0.87;;;0.60;;
6336;SDS011;3201;49.962;11.618;2023-03-14T00:21:01;1.00;;;0.60;;
6336;SDS011;3201;49.962;11.618;2023-03-14T00:23:28;1.00;;;0.80;;
6336;SDS011;3201;49.962;11.618;2023-03-14T00:25:58;0.90;;;0.80;;
6336;SDS011;3201;49.962;11.618;2023-03-14T00:28:24;1.57;;;0.50;;
6336;SDS011;3201;49.962;11.618;2023-03-14T00:30:49;0.90;;;0.63;;
6336;SDS011;3201;49.962;11.618;2023-03-14T00:33:15;2.23;;;0.83;;
6336;SDS011;3201;49.962;11.618;2023-03-14T00:35:40;1.20;;;0.80;;
6336;SDS011;3201;49.962;11.618;2023-03-14T00:38:05;0.70;;;0.70;;
6336;SDS011;3201;49.962;11.618;2023-03-14T00:40:30;1.30;;;0.90;;
6336;SDS011;3201;49.962;11.618;2023-03-14T00:42:56;2.73;;;0.70;;
6336;SDS011;3201;49.962;11.618;2023-03-14T00:45:21;2.23;;;0.80;;
6336;SDS011;3201;49.962;11.618;2023-03-14T00:47:46;1.37;;;0.90;;
6336;SDS011;3201;49.962;11.618;2023-03-14T00:50:11;1.17;;;0.60;;
6336;SDS011;3201;49.962;11.618;2023-03-14T00:52:38;0.87;;;0.67;;
6336;SDS011;3201;49.962;11.618;2023-03-14T00:55:03;1.33;;;0.70;;
6336;SDS011;3201;49.962;11.618;2023-03-14T00:57:29;1.50;;;1.00;;
6336;SDS011;3201;49.962;11.618;2023-03-14T00:59:54;1.20;;;0.67;;
6336;SDS011;3201;49.962;11.618;2023-03-14T01:02:20;1.83;;;0.77;;
6336;SDS011;3201;49.962;11.618;2023-03-14T01:04:47;0.80;;;0.77;;
6336;SDS011;3201;49.962;11.618;2023-03-14T01:07:13;1.00;;;0.77;;
6336;SDS011;3201;49.962;11.618;2023-03-14T01:09:38;1.00;;;0.70;;
6336;SDS011;3201;49.962;11.618;2023-03-14T01:12:03;1.30;;;0.60;;
6336;SDS011;3201;49.962;11.618;2023-03-14T01:14:28;1.33;;;0.97;;
6336;SDS011;3201;49.962;11.618;2023-03-14T01:16:54;0.70;;;0.70;;
6336;SDS011;3201;49.962;11.618;2023-03-14T01:19:25;0.90;;;0.70;;
6336;SDS011;3201;49.962;11.618;2023-03-14T01:21:51;1.23;;;0.83;;
6336;SDS011;3201;49.962;11.618;2023-03-14T01:24:16;1.10;;;0.80;;
6336;SDS011;3201;49.962;11.618;2023-03-14T01:26:41;0.77;;;0.57;;
6336;SDS011;3201;49.962;11.618;2023-03-14T01:29:06;0.97;;;0.83;;
6336;SDS011;3201;49.962;11.618;2023-03-14T01:31:32;1.27;;;0.77;;
6336;SDS011;3201;49.962;11.618;2023-03-14T01:33:57;1.00;;;0.87;;
6336;SDS011;3201;49.962;11.618;2023-03-14T01:36:22;2.33;;;1.00;;
6336;SDS011;3201;49.962;11.618;2023-03-14T01:38:48;0.87;;;0.83;;
6336;SDS011;3201;49.962;11.618;2023-03-14T01:41:15;1.33;;;0.83;;
6336;SDS011;3201;49.962;11.618;2023-03-14T01:43:42;1.60;;;0.73;;
6336;SDS011;3201;49.962;11.618;2023-03-14T01:51:17;0.70;;;0.60;;
6336;SDS011;3201;49.962;11.618;2023-03-14T01:53:44;2.20;;;0.70;;
6336;SDS011;3201;49.962;11.618;2023-03-14T01:56:10;0.90;;;0.60;;
6336;SDS011;3201;49.962;11.618;2023-03-14T01:58:37;1.00;;;0.70;;
6336;SDS011;3201;49.962;11.618;2023-03-14T02:01:02;0.90;;;0.60;;
6336;SDS011;3201;49.962;11.618;2023-03-14T02:03:28;1.70;;;0.60;;
6336;SDS011;3201;49.962;11.618;2023-03-14T02:05:55;1.20;;;0.73;;
6336;SDS011;3201;49.962;11.618;2023-03-14T02:08:22;0.70;;;0.60;;
6336;SDS011;3201;49.962;11.618;2023-03-14T02:10:48;0.50;;;0.37;;
6336;SDS011;3201;49.962;11.618;2023-03-14T02:13:15;1.43;;;0.87;;
6336;SDS011;3201;49.962;11.618;2023-03-14T02:15:42;2.10;;;0.80;;
6336;SDS011;3201;49.962;11.618;2023-03-14T02:18:08;0.90;;;0.80;;
6336;SDS011;3201;49.962;11.618;2023-03-14T02:20:35;0.73;;;0.50;;
6336;SDS011;3201;49.962;11.618;2023-03-14T02:23:04;1.33;;;0.63;;
6336;SDS011;3201;49.962;11.618;2023-03-14T02:27:57;4.43;;;0.50;;
6336;SDS011;3201;49.962;11.618;2023-03-14T02:30:25;3.47;;;0.60;;
6336;SDS011;3201;49.962;11.618;2023-03-14T02:32:53;0.70;;;0.40;;
6336;SDS011;3201;49.962;11.618;2023-03-14T02:35:22;0.60;;;0.40;;
6336;SDS011;3201;49.962;11.618;2023-03-14T02:40:17;1.27;;;0.53;;
6336;SDS011;3201;49.962;11.618;2023-03-14T02:42:42;0.70;;;0.63;;
6336;SDS011;3201;49.962;11.618;2023-03-14T02:47:37;1.30;;;0.70;;
6336;SDS011;3201;49.962;11.618;2023-03-14T02:50:08;0.97;;;0.73;;
6336;SDS011;3201;49.962;11.618;2023-03-14T02:52:35;0.67;;;0.50;;
6336;SDS011;3201;49.962;11.618;2023-03-14T02:55:00;0.70;;;0.60;;
6336;SDS011;3201;49.962;11.618;2023-03-14T02:57:26;0.80;;;0.57;;
6336;SDS011;3201;49.962;11.618;2023-03-14T02:59:51;0.60;;;0.50;;
6336;SDS011;3201;49.962;11.618;2023-03-14T03:02:16;0.70;;;0.43;;
6336;SDS011;3201;49.962;11.618;2023-03-14T03:04:42;0.97;;;0.50;;
6336;SDS011;3201;49.962;11.618;2023-03-14T03:07:07;1.10;;;0.90;;
6336;SDS011;3201;49.962;11.618;2023-03-14T03:09:33;0.80;;;0.70;;
6336;SDS011;3201;49.962;11.618;2023-03-14T03:11:58;0.77;;;0.50;;
6336;SDS011;3201;49.962;11.618;2023-03-14T03:14:23;1.33;;;0.73;;
6336;SDS011;3201;49.962;11.618;2023-03-14T03:16:49;0.87;;;0.50;;
6336;SDS011;3201;49.962;11.618;2023-03-14T03:19:14;0.90;;;0.50;;
6336;SDS011;3201;49.962;11.618;2023-03-14T03:21:40;0.90;;;0.57;;
6336;SDS011;3201;49.962;11.618;2023-03-14T03:24:06;1.80;;;0.50;;
6336;SDS011;3201;49.962;11.618;2023-03-14T03:26:33;0.60;;;0.40;;
6336;SDS011;3201;49.962;11.618;2023-03-14T03:28:59;1.10;;;0.73;;
6336;SDS011;3201;49.962;11.618;2023-03-14T03:31:24;3.43;;;0.77;;
6336;SDS011;3201;49.962;11.618;2023-03-14T03:33:50;0.73;;;0.63;;
6336;SDS011;3201;49.962;11.618;2023-03-14T03:36:15;1.43;;;0.60;;
6336;SDS011;3201;49.962;11.618;2023-03-14T03:38:40;0.67;;;0.50;;
6336;SDS011;3201;49.962;11.618;2023-03-14T03:41:06;0.80;;;0.50;;
6336;SDS011;3201;49.962;11.618;2023-03-14T03:43:32;1.33;;;0.80;;
6336;SDS011;3201;49.962;11.618;2023-03-14T03:45:57;0.70;;;0.50;;
6336;SDS011;3201;49.962;11.618;2023-03-14T03:48:22;0.90;;;0.60;;
6336;SDS011;3201;49.962;11.618;2023-03-14T03:50:48;1.43;;;0.63;;
6336;SDS011;3201;49.962;11.618;2023-03-14T03:53:13;1.13;;;0.70;;
6336;SDS011;3201;49.962;11.618;2023-03-14T03:55:42;1.00;;;0.53;;
6336;SDS011;3201;49.962;11.618;2023-03-14T03:58:07;0.63;;;0.53;;
6336;SDS011;3201;49.962;11.618;2023-03-14T04:00:32;0.70;;;0.50;;
6336;SDS011;3201;49.962;11.618;2023-03-14T04:02:58;0.73;;;0.60;;
6336;SDS011;3201;49.962;11.618;2023-03-14T04:05:24;0.70;;;0.50;;
6336;SDS011;3201;49.962;11.618;2023-03-14T04:07:49;0.80;;;0.50;;
6336;SDS011;3201;49.962;11.618;2023-03-14T04:10:14;0.90;;;0.63;;
6336;SDS011;3201;49.962;11.618;2023-03-14T04:12:40;1.53;;;0.40;;
6336;SDS011;3201;49.962;11.618;2023-03-14T04:15:05;1.10;;;0.67;;
6336;SDS011;3201;49.962;11.618;2023-03-14T04:17:31;0.63;;;0.50;;
6336;SDS011;3201;49.962;11.618;2023-03-14T04:19:56;0.53;;;0.43;;
6336;SDS011;3201;49.962;11.618;2023-03-14T04:22:22;0.90;;;0.60;;
6336;SDS011;3201;49.962;11.618;2023-03-14T04:24:47;0.80;;;0.50;;
6336;SDS011;3201;49.962;11.618;2023-03-14T04:27:12;1.83;;;0.60;;
6336;SDS011;3201;49.962;11.618;2023-03-14T04:29:39;1.13;;;0.60;;
6336;SDS011;3201;49.962;11.618;2023-03-14T04:32:04;0.90;;;0.57;;
6336;SDS011;3201;49.962;11.618;2023-03-14T04:34:30;0.60;;;0.50;;
6336;SDS011;3201;49.962;11.618;2023-03-14T04:36:55;0.70;;;0.60;;
6336;SDS011;3201;49.962;11.618;2023-03-14T04:39:20;0.60;;;0.40;;
6336;SDS011;3201;49.962;11.618;2023-03-14T04:41:46;0.80;;;0.50;;
6336;SDS011;3201;49.962;11.618;2023-03-14T04:44:11;0.97;;;0.50;;
6336;SDS011;3201;49.962;11.618;2023-03-14T04:46:36;1.00;;;0.50;;
6336;SDS011;3201;49.962;11.618;2023-03-14T04:49:01;0.60;;;0.40;;
6336;SDS011;3201;49.962;11.618;2023-03-14T04:51:27;0.97;;;0.60;;
6336;SDS011;3201;49.962;11.618;2023-03-14T04:53:52;0.90;;;0.70;;
6336;SDS011;3201;49.962;11.618;2023-03-14T04:56:18;0.90;;;0.40;;
6336;SDS011;3201;49.962;11.618;2023-03-14T04:58:44;1.90;;;0.50;;
6336;SDS011;3201;49.962;11.618;2023-03-14T05:01:09;0.60;;;0.40;;
6336;SDS011;3201;49.962;11.618;2023-03-14T05:03:35;0.60;;;0.40;;
6336;SDS011;3201;49.962;11.618;2023-03-14T05:06:03;0.70;;;0.40;;
6336;SDS011;3201;49.962;11.618;2023-03-14T05:08:29;0.70;;;0.60;;
6336;SDS011;3201;49.962;11.618;2023-03-14T05:10:54;0.80;;;0.50;;
6336;SDS011;3201;49.962;11.618;2023-03-14T05:13:20;0.70;;;0.50;;
6336;SDS011;3201;49.962;11.618;2023-03-14T05:15:46;1.20;;;0.80;;
6336;SDS011;3201;49.962;11.618;2023-03-14T05:18:11;1.37;;;0.60;;
6336;SDS011;3201;49.962;11.618;2023-03-14T05:20:36;0.80;;;0.60;;
6336;SDS011;3201;49.962;11.618;2023-03-14T05:23:02;0.60;;;0.50;;
6336;SDS011;3201;49.962;11.618;2023-03-14T05:25:27;1.20;;;0.50;;
6336;SDS011;3201;49.962;11.618;2023-03-14T05:27:54;0.90;;;0.60;;
6336;SDS011;3201;49.962;11.618;2023-03-14T05:30:20;0.50;;;0.33;;
6336;SDS011;3201;49.962;11.618;2023-03-14T05:32:46;0.83;;;0.50;;
6336;SDS011;3201;49.962;11.618;2023-03-14T05:35:11;0.93;;;0.60;;
6336;SDS011;3201;49.962;11.618;2023-03-14T05:37:37;1.00;;;0.60;;
6336;SDS011;3201;49.962;11.618;2023-03-14T05:40:02;0.70;;;0.40;;
6336;SDS011;3201;49.962;11.618;2023-03-14T05:42:31;0.60;;;0.50;;
6336;SDS011;3201;49.962;11.618;2023-03-14T05:44:56;0.60;;;0.60;;
6336;SDS011;3201;49.962;11.618;2023-03-14T05:47:22;0.63;;;0.50;;
6336;SDS011;3201;49.962;11.618;2023-03-14T05:49:47;0.70;;;0.50;;
6336;SDS011;3201;49.962;11.618;2023-03-14T05:52:13;0.77;;;0.57;;
6336;SDS011;3201;49.962;11.618;2023-03-14T05:54:38;1.63;;;0.40;;
6336;SDS011;3201;49.962;11.618;2023-03-14T05:57:04;0.90;;;0.50;;
6336;SDS011;3201;49.962;11.618;2023-03-14T05:59:29;0.90;;;0.50;;
6336;SDS011;3201;49.962;11.618;2023-03-14T06:01:54;0.50;;;0.40;;
6336;SDS011;3201;49.962;11.618;2023-03-14T06:04:20;1.50;;;0.60;;
6336;SDS011;3201;49.962;11.618;2023-03-14T06:06:45;1.00;;;0.53;;
6336;SDS011;3201;49.962;11.618;2023-03-14T06:09:10;0.80;;;0.50;;
6336;SDS011;3201;49.962;11.618;2023-03-14T06:11:36;0.80;;;0.50;;
6336;SDS011;3201;49.962;11.618;2023-03-14T06:14:01;0.60;;;0.40;;
6336;SDS011;3201;49.962;11.618;2023-03-14T06:16:26;0.63;;;0.57;;
6336;SDS011;3201;49.962;11.618;2023-03-14T06:18:51;0.50;;;0.40;;
6336;SDS011;3201;49.962;11.618;2023-03-14T06:21:17;0.70;;;0.40;;
6336;SDS011;3201;49.962;11.618;2023-03-14T06:23:43;1.97;;;0.47;;
6336;SDS011;3201;49.962;11.618;2023-03-14T06:26:08;2.80;;;0.50;;
6336;SDS011;3201;49.962;11.618;2023-03-14T06:28:33;0.80;;;0.50;;
6336;SDS011;3201;49.962;11.618;2023-03-14T06:30:59;0.70;;;0.40;;
6336;SDS011;3201;49.962;11.618;2023-03-14T06:33:25;0.60;;;0.50;;
6336;SDS011;3201;49.962;11.618;2023-03-14T06:35:50;0.80;;;0.60;;
6336;SDS011;3201;49.962;11.618;2023-03-14T06:38:15;0.60;;;0.50;;
6336;SDS011;3201;49.962;11.618;2023-03-14T06:40:41;0.50;;;0.30;;
6336;SDS011;3201;49.962;11.618;2023-03-14T06:43:06;0.90;;;0.57;;
6336;SDS011;3201;49.962;11.618;2023-03-14T06:45:31;0.83;;;0.50;;
6336;SDS011;3201;49.962;11.618;2023-03-14T06:47:56;0.70;;;0.50;;
6336;SDS011;3201;49.962;11.618;2023-03-14T06:50:22;1.13;;;0.40;;
6336;SDS011;3201;49.962;11.618;2023-03-14T06:52:47;0.70;;;0.63;;
6336;SDS011;3201;49.962;11.618;2023-03-14T06:55:13;1.07;;;0.57;;
6336;SDS011;3201;49.962;11.618;2023-03-14T06:57:40;0.90;;;0.60;;
6336;SDS011;3201;49.962;11.618;2023-03-14T07:00:06;0.70;;;0.53;;
6336;SDS011;3201;49.962;11.618;2023-03-14T07:02:32;0.60;;;0.50;;
6336;SDS011;3201;49.962;11.618;2023-03-14T07:04:57;0.70;;;0.50;;
6336;SDS011;3201;49.962;11.618;2023-03-14T07:07:23;1.73;;;0.60;;
6336;SDS011;3201;49.962;11.618;2023-03-14T07:09:48;0.80;;;0.53;;
6336;SDS011;3201;49.962;11.618;2023-03-14T07:12:14;0.80;;;0.60;;
6336;SDS011;3201;49.962;11.618;2023-03-14T07:14:39;1.73;;;0.60;;
6336;SDS011;3201;49.962;11.618;2023-03-14T07:17:04;1.27;;;0.80;;
6336;SDS011;3201;49.962;11.618;2023-03-14T07:19:30;0.50;;;0.40;;
6336;SDS011;3201;49.962;11.618;2023-03-14T07:21:55;1.37;;;0.40;;
6336;SDS011;3201;49.962;11.618;2023-03-14T07:24:20;1.17;;;0.77;;
6336;SDS011;3201;49.962;11.618;2023-03-14T07:26:46;0.90;;;0.60;;
6336;SDS011;3201;49.962;11.618;2023-03-14T07:29:11;0.67;;;0.40;;
6336;SDS011;3201;49.962;11.618;2023-03-14T07:31:36;1.10;;;0.63;;
6336;SDS011;3201;49.962;11.618;2023-03-14T07:34:02;0.60;;;0.40;;
6336;SDS011;3201;49.962;11.618;2023-03-14T07:36:27;1.97;;;0.80;;
6336;SDS011;3201;49.962;11.618;2023-03-14T07:38:53;1.00;;;0.60;;
6336;SDS011;3201;49.962;11.618;2023-03-14T07:41:18;1.17;;;0.50;;
6336;SDS011;3201;49.962;11.618;2023-03-14T07:43:45;5.70;;;1.27;;
6336;SDS011;3201;49.962;11.618;2023-03-14T07:46:11;1.13;;;0.70;;
6336;SDS011;3201;49.962;11.618;2023-03-14T07:48:36;0.70;;;0.50;;
6336;SDS011;3201;49.962;11.618;2023-03-14T07:51:02;2.10;;;0.70;;
6336;SDS011;3201;49.962;11.618;2023-03-14T07:53:28;1.43;;;0.60;;
6336;SDS011;3201;49.962;11.618;2023-03-14T07:55:53;1.00;;;0.50;;
6336;SDS011;3201;49.962;11.618;2023-03-14T07:58:19;0.90;;;0.60;;
6336;SDS011;3201;49.962;11.618;2023-03-14T08:00:44;1.43;;;0.57;;
6336;SDS011;3201;49.962;11.618;2023-03-14T08:03:10;1.00;;;0.60;;
6336;SDS011;3201;49.962;11.618;2023-03-14T08:05:36;0.80;;;0.60;;
6336;SDS011;3201;49.962;11.618;2023-03-14T08:08:02;2.40;;;0.50;;
6336;SDS011;3201;49.962;11.618;2023-03-14T08:10:28;0.60;;;0.40;;
6336;SDS011;3201;49.962;11.618;2023-03-14T08:12:54;1.00;;;0.70;;
6336;SDS011;3201;49.962;11.618;2023-03-14T08:15:21;2.10;;;0.70;;
6336;SDS011;3201;49.962;11.618;2023-03-14T08:17:47;5.23;;;0.70;;
6336;SDS011;3201;49.962;11.618;2023-03-14T08:20:17;0.80;;;0.50;;
6336;SDS011;3201;49.962;11.618;2023-03-14T08:22:43;4.87;;;0.73;;
6336;SDS011;3201;49.962;11.618;2023-03-14T08:25:08;1.23;;;0.67;;
6336;SDS011;3201;49.962;11.618;2023-03-14T08:27:34;0.60;;;0.40;;
6336;SDS011;3201;49.962;11.618;2023-03-14T08:30:00;1.00;;;0.70;;
6336;SDS011;3201;49.962;11.618;2023-03-14T08:32:25;0.57;;;0.53;;
6336;SDS011;3201;49.962;11.618;2023-03-14T08:34:50;2.40;;;0.80;;
6336;SDS011;3201;49.962;11.618;2023-03-14T08:37:15;2.00;;;0.70;;
6336;SDS011;3201;49.962;11.618;2023-03-14T08:39:41;1.83;;;0.50;;
6336;SDS011;3201;49.962;11.618;2023-03-14T08:42:06;1.10;;;0.53;;
6336;SDS011;3201;49.962;11.618;2023-03-14T08:44:31;1.27;;;0.70;;
6336;SDS011;3201;49.962;11.618;2023-03-14T08:46:57;1.60;;;0.93;;
6336;SDS011;3201;49.962;11.618;2023-03-14T08:49:22;1.43;;;0.87;;
6336;SDS011;3201;49.962;11.618;2023-03-14T08:51:47;2.50;;;0.77;;
6336;SDS011;3201;49.962;11.618;2023-03-14T08:54:13;2.10;;;0.70;;
6336;SDS011;3201;49.962;11.618;2023-03-14T08:56:38;5.03;;;0.70;;
6336;SDS011;3201;49.962;11.618;2023-03-14T08:59:04;1.60;;;0.67;;
6336;SDS011;3201;49.962;11.618;2023-03-14T09:01:30;4.33;;;0.70;;
6336;SDS011;3201;49.962;11.618;2023-03-14T09:03:55;1.87;;;0.70;;
6336;SDS011;3201;49.962;11.618;2023-03-14T09:06:20;1.73;;;0.60;;
6336;SDS011;3201;49.962;11.618;2023-03-14T09:08:46;5.20;;;1.73;;
6336;SDS011;3201;49.962;11.618;2023-03-14T09:11:11;3.73;;;1.03;;
6336;SDS011;3201;49.962;11.618;2023-03-14T09:13:37;5.20;;;1.07;;
6336;SDS011;3201;49.962;11.618;2023-03-14T09:16:03;5.27;;;1.30;;
6336;SDS011;3201;49.962;11.618;2023-03-14T09:18:28;1.57;;;1.20;;
6336;SDS011;3201;49.962;11.618;2023-03-14T09:20:54;2.17;;;1.27;;
6336;SDS011;3201;49.962;11.618;2023-03-14T09:23:20;3.97;;;1.30;;
6336;SDS011;3201;49.962;11.618;2023-03-14T09:25:46;9.03;;;1.53;;
6336;SDS011;3201;49.962;11.618;2023-03-14T09:28:11;3.00;;;2.03;;
6336;SDS011;3201;49.962;11.618;2023-03-14T09:30:37;4.30;;;2.53;;
6336;SDS011;3201;49.962;11.618;2023-03-14T09:33:02;4.30;;;3.13;;
6336;SDS011;3201;49.962;11.618;2023-03-14T09:35:27;3.07;;;2.33;;
6336;SDS011;3201;49.962;11.618;2023-03-14T09:37:53;3.07;;;2.17;;
6336;SDS011;3201;49.962;11.618;2023-03-14T09:40:19;5.80;;;2.13;;
6336;SDS011;3201;49.962;11.618;2023-03-14T09:42:45;3.63;;;2.33;;
6336;SDS011;3201;49.962;11.618;2023-03-14T09:45:23;3.30;;;1.33;;
6336;SDS011;3201;49.962;11.618;2023-03-14T09:47:50;4.83;;;2.30;;
6336;SDS011;3201;49.962;11.618;2023-03-14T09:50:17;3.77;;;2.17;;
6336;SDS011;3201;49.962;11.618;2023-03-14T09:52:44;6.57;;;2.60;;
6336;SDS011;3201;49.962;11.618;2023-03-14T09:55:12;4.63;;;2.50;;
6336;SDS011;3201;49.962;11.618;2023-03-14T09:57:41;15.20;;;3.03;;
6336;SDS011;3201;49.962;11.618;2023-03-14T10:00:23;6.80;;;2.60;;
6336;SDS011;3201;49.962;11.618;2023-03-14T10:02:53;2.77;;;2.37;;
6336;SDS011;3201;49.962;11.618;2023-03-14T10:05:20;7.23;;;2.30;;
6336;SDS011;3201;49.962;11.618;2023-03-14T10:07:47;4.23;;;2.20;;
6336;SDS011;3201;49.962;11.618;2023-03-14T10:10:24;2.87;;;1.40;;
6336;SDS011;3201;49.962;11.618;2023-03-14T10:12:55;6.67;;;2.40;;
6336;SDS011;3201;49.962;11.618;2023-03-14T10:15:25;9.13;;;2.10;;
6336;SDS011;3201;49.962;11.618;2023-03-14T10:17:54;2.67;;;1.60;;
6336;SDS011;3201;49.962;11.618;2023-03-14T10:20:36;4.30;;;2.00;;
6336;SDS011;3201;49.962;11.618;2023-03-14T10:23:16;3.90;;;1.63;;
6336;SDS011;3201;49.962;11.618;2023-03-14T10:25:58;4.40;;;2.40;;
6336;SDS011;3201;49.962;11.618;2023-03-14T10:28:27;4.10;;;2.00;;
6336;SDS011;3201;49.962;11.618;2023-03-14T10:30:54;4.93;;;1.43;;
6336;SDS011;3201;49.962;11.618;2023-03-14T10:33:22;1.43;;;1.13;;
6336;SDS011;3201;49.962;11.618;2023-03-14T10:35:53;2.40;;;1.70;;
6336;SDS011;3201;49.962;11.618;2023-03-14T10:38:22;5.10;;;1.43;;
6336;SDS011;3201;49.962;11.618;2023-03-14T10:40:49;3.57;;;1.20;;
6336;SDS011;3201;49.962;11.618;2023-03-14T10:43:19;3.20;;;1.70;;
6336;SDS011;3201;49.962;11.618;2023-03-14T10:45:51;3.73;;;1.40;;
6336;SDS011;3201;49.962;11.618;2023-03-14T10:50:55;2.60;;;1.87;;
6336;SDS011;3201;49.962;11.618;2023-03-14T10:53:23;3.43;;;1.67;;
6336;SDS011;3201;49.962;11.618;2023-03-14T10:55:49;8.00;;;1.30;;
6336;SDS011;3201;49.962;11.618;2023-03-14T10:58:30;3.87;;;1.30;;
6336;SDS011;3201;49.962;11.618;2023-03-14T11:03:57;5.50;;;1.70;;
6336;SDS011;3201;49.962;11.618;2023-03-14T11:06:28;4.10;;;1.03;;
6336;SDS011;3201;49.962;11.618;2023-03-14T11:11:30;4.07;;;1.40;;
6336;SDS011;3201;49.962;11.618;2023-03-14T11:20:45;3.47;;;1.40;;
6336;SDS011;3201;49.962;11.618;2023-03-14T11:22:44;1.70;;;0.87;;
6336;SDS011;3201;49.962;11.618;2023-03-14T11:25:15;6.23;;;1.27;;
6336;SDS011;3201;49.962;11.618;2023-03-14T11:27:53;2.87;;;1.27;;
6336;SDS011;3201;49.962;11.618;2023-03-14T11:30:54;2.30;;;0.80;;
6336;SDS011;3201;49.962;11.618;2023-03-14T11:35:45;4.80;;;1.20;;
6336;SDS011;3201;49.962;11.618;2023-03-14T11:41:02;3.90;;;2.40;;
6336;SDS011;3201;49.962;11.618;2023-03-14T11:43:30;8.23;;;2.40;;
6336;SDS011;3201;49.962;11.618;2023-03-14T11:46:03;2.70;;;2.13;;
6336;SDS011;3201;49.962;11.618;2023-03-14T11:48:34;5.00;;;2.00;;
6336;SDS011;3201;49.962;11.618;2023-03-14T11:51:08;5.20;;;2.03;;
6336;SDS011;3201;49.962;11.618;2023-03-14T11:56:12;8.13;;;4.07;;
6336;SDS011;3201;49.962;11.618;2023-03-14T11:58:47;6.57;;;5.50;;
6336;SDS011;3201;49.962;11.618;2023-03-14T12:01:35;4.90;;;4.30;;
6336;SDS011;3201;49.962;11.618;2023-03-14T12:04:15;8.00;;;4.50;;
6336;SDS011;3201;49.962;11.618;2023-03-14T12:09:13;6.77;;;4.07;;
6336;SDS011;3201;49.962;11.618;2023-03-14T12:14:45;4.93;;;2.70;;
6336;SDS011;3201;49.962;11.618;2023-03-14T12:17:59;4.43;;;2.40;;
6336;SDS011;3201;49.962;11.618;2023-03-14T12:19:46;13.00;;;3.37;;
6336;SDS011;3201;49.962;11.618;2023-03-14T12:24:47;7.30;;;2.43;;
6336;SDS011;3201;49.962;11.618;2023-03-14T12:27:37;3.63;;;2.00;;
6336;SDS011;3201;49.962;11.618;2023-03-14T12:30:14;3.83;;;2.33;;
6336;SDS011;3201;49.962;11.618;2023-03-14T12:32:41;5.50;;;2.90;;
6336;SDS011;3201;49.962;11.618;2023-03-14T12:35:30;5.13;;;2.53;;
6336;SDS011;3201;49.962;11.618;2023-03-14T12:38:27;5.87;;;2.33;;
6336;SDS011;3201;49.962;11.618;2023-03-14T12:41:11;3.23;;;2.00;;
6336;SDS011;3201;49.962;11.618;2023-03-14T12:43:40;9.63;;;1.70;;
6336;SDS011;3201;49.962;11.618;2023-03-14T12:46:07;3.80;;;1.70;;
6336;SDS011;3201;49.962;11.618;2023-03-14T12:48:34;10.00;;;2.20;;
6336;SDS011;3201;49.962;11.618;2023-03-14T12:51:02;1.80;;;1.33;;
6336;SDS011;3201;49.962;11.618;2023-03-14T12:56:35;3.53;;;1.60;;
6336;SDS011;3201;49.962;11.618;2023-03-14T13:01:56;3.43;;;1.53;;
6336;SDS011;3201;49.962;11.618;2023-03-14T13:04:27;6.93;;;2.17;;
6336;SDS011;3201;49.962;11.618;2023-03-14T13:06:57;3.77;;;1.40;;
6336;SDS011;3201;49.962;11.618;2023-03-14T13:12:00;2.80;;;2.20;;
6336;SDS011;3201;49.962;11.618;2023-03-14T13:14:28;3.90;;;2.03;;
6336;SDS011;3201;49.962;11.618;2023-03-14T13:16:55;2.67;;;1.80;;
6336;SDS011;3201;49.962;11.618;2023-03-14T13:19:25;3.90;;;1.70;;
6336;SDS011;3201;49.962;11.618;2023-03-14T13:21:56;1.73;;;1.40;;
6336;SDS011;3201;49.962;11.618;2023-03-14T13:24:25;3.97;;;1.60;;
6336;SDS011;3201;49.962;11.618;2023-03-14T13:26:52;6.20;;;1.40;;
6336;SDS011;3201;49.962;11.618;2023-03-14T13:29:19;3.13;;;1.53;;
6336;SDS011;3201;49.962;11.618;2023-03-14T13:31:47;5.57;;;1.57;;
6336;SDS011;3201;49.962;11.618;2023-03-14T13:34:14;6.27;;;1.60;;
6336;SDS011;3201;49.962;11.618;2023-03-14T13:36:39;3.63;;;1.00;;
6336;SDS011;3201;49.962;11.618;2023-03-14T13:39:09;3.80;;;1.37;;
6336;SDS011;3201;49.962;11.618;2023-03-14T13:41:37;6.33;;;1.63;;
6336;SDS011;3201;49.962;11.618;2023-03-14T13:44:05;3.67;;;1.57;;
6336;SDS011;3201;49.962;11.618;2023-03-14T13:46:33;2.27;;;1.30;;
6336;SDS011;3201;49.962;11.618;2023-03-14T13:49:03;14.03;;;1.50;;
6336;SDS011;3201;49.962;11.618;2023-03-14T13:51:30;3.03;;;1.57;;
6336;SDS011;3201;49.962;11.618;2023-03-14T13:53:58;9.00;;;2.17;;
6336;SDS011;3201;49.962;11.618;2023-03-14T13:56:25;7.73;;;1.53;;
6336;SDS011;3201;49.962;11.618;2023-03-14T13:58:52;13.33;;;2.27;;
6336;SDS011;3201;49.962;11.618;2023-03-14T14:01:20;16.90;;;2.27;;
6336;SDS011;3201;49.962;11.618;2023-03-14T14:03:49;35.77;;;3.20;;
6336;SDS011;3201;49.962;11.618;2023-03-14T14:06:49;29.93;;;3.13;;
6336;SDS011;3201;49.962;11.618;2023-03-14T14:09:04;34.20;;;2.83;;
6336;SDS011;3201;49.962;11.618;2023-03-14T14:14:04;23.73;;;2.40;;
6336;SDS011;3201;49.962;11.618;2023-03-14T14:16:31;49.30;;;3.87;;
6336;SDS011;3201;49.962;11.618;2023-03-14T14:18:56;31.00;;;3.70;;
6336;SDS011;3201;49.962;11.618;2023-03-14T14:21:22;21.57;;;2.00;;
6336;SDS011;3201;49.962;11.618;2023-03-14T14:23:48;24.07;;;3.20;;
6336;SDS011;3201;49.962;11.618;2023-03-14T14:26:16;21.97;;;3.07;;
6336;SDS011;3201;49.962;11.618;2023-03-14T14:28:42;31.97;;;2.10;;
6336;SDS011;3201;49.962;11.618;2023-03-14T14:36:22;16.97;;;3.43;;
6336;SDS011;3201;49.962;11.618;2023-03-14T14:38:51;18.80;;;3.20;;
6336;SDS011;3201;49.962;11.618;2023-03-14T14:41:18;23.50;;;2.77;;
6336;SDS011;3201;49.962;11.618;2023-03-14T14:43:43;21.10;;;2.40;;
6336;SDS011;3201;49.962;11.618;2023-03-14T14:46:08;20.03;;;2.27;;
6336;SDS011;3201;49.962;11.618;2023-03-14T14:48:36;20.60;;;2.00;;
6336;SDS011;3201;49.962;11.618;2023-03-14T14:51:03;29.87;;;3.50;;
6336;SDS011;3201;49.962;11.618;2023-03-14T14:53:30;31.73;;;3.00;;
6336;SDS011;3201;49.962;11.618;2023-03-14T14:56:06;16.57;;;4.00;;
6336;SDS011;3201;49.962;11.618;2023-03-14T14:58:40;15.10;;;2.30;;
6336;SDS011;3201;49.962;11.618;2023-03-14T15:01:22;25.07;;;2.63;;
6336;SDS011;3201;49.962;11.618;2023-03-14T15:03:50;22.53;;;2.10;;
6336;SDS011;3201;49.962;11.618;2023-03-14T15:06:16;23.83;;;2.00;;
6336;SDS011;3201;49.962;11.618;2023-03-14T15:08:42;10.77;;;2.20;;
6336;SDS011;3201;49.962;11.618;2023-03-14T15:11:09;7.87;;;1.83;;
6336;SDS011;3201;49.962;11.618;2023-03-14T15:13:43;10.10;;;1.60;;
6336;SDS011;3201;49.962;11.618;2023-03-14T15:16:10;6.77;;;1.80;;
6336;SDS011;3201;49.962;11.618;2023-03-14T15:18:36;10.30;;;1.33;;
6336;SDS011;3201;49.962;11.618;2023-03-14T15:21:02;4.87;;;1.20;;
6336;SDS011;3201;49.962;11.618;2023-03-14T15:23:27;19.87;;;1.60;;
6336;SDS011;3201;49.962;11.618;2023-03-14T15:25:53;10.50;;;1.53;;
6336;SDS011;3201;49.962;11.618;2023-03-14T15:28:19;16.27;;;1.67;;
6336;SDS011;3201;49.962;11.618;2023-03-14T15:30:46;4.00;;;1.10;;
6336;SDS011;3201;49.962;11.618;2023-03-14T15:33:14;11.77;;;2.00;;
6336;SDS011;3201;49.962;11.618;2023-03-14T15:35:39;8.20;;;1.53;;
6336;SDS011;3201;49.962;11.618;2023-03-14T15:38:08;12.17;;;1.63;;
6336;SDS011;3201;49.962;11.618;2023-03-14T15:40:35;5.87;;;1.40;;
6336;SDS011;3201;49.962;11.618;2023-03-14T15:43:00;15.70;;;1.40;;
6336;SDS011;3201;49.962;11.618;2023-03-14T15:45:25;7.10;;;1.00;;
6336;SDS011;3201;49.962;11.618;2023-03-14T15:47:51;6.10;;;1.20;;
6336;SDS011;3201;49.962;11.618;2023-03-14T15:50:16;5.07;;;1.53;;
6336;SDS011;3201;49.962;11.618;2023-03-14T15:52:41;13.40;;;1.17;;
6336;SDS011;3201;49.962;11.618;2023-03-14T15:55:07;8.10;;;1.60;;
6336;SDS011;3201;49.962;11.618;2023-03-14T15:57:32;8.50;;;1.23;;
6336;SDS011;3201;49.962;11.618;2023-03-14T15:59:58;3.20;;;1.23;;